sensor_id;sensor_type;location;lat;lon;timestamp;P1;durP1;ratioP1;P2;durP2;ratioP2
28587;SDS011;15787;49.662;10.162;2023-07-29T00:02:26;9.75;;;3.05;;
28587;SDS011;15787;49.662;10.162;2023-07-29T00:05:01;14.75;;;4.00;;
28587;SDS011;15787;49.662;10.162;2023-07-29T00:07:34;5.00;;;3.22;;
28587;SDS011;15787;49.662;10.162;2023-07-29T00:10:09;7.80;;;3.90;;
28587;SDS011;15787;49.662;10.162;2023-07-29T00:12:42;4.53;;;2.95;;
28587;SDS011;15787;49.662;10.162;2023-07-29T00:15:15;5.07;;;3.03;;
28587;SDS011;15787;49.662;10.162;2023-07-29T00:17:48;5.93;;;3.28;;
28587;SDS011;15787;49.662;10.162;2023-07-29T00:20:22;5.97;;;3.05;;
28587;SDS011;15787;49.662;10.162;2023-07-29T00:22:55;8.85;;;2.70;;
28587;SDS011;15787;49.662;10.162;2023-07-29T00:25:30;6.28;;;2.88;;
28587;SDS011;15787;49.662;10.162;2023-07-29T00:28:03;7.82;;;2.63;;
28587;SDS011;15787;49.662;10.162;2023-07-29T00:30:36;9.55;;;3.60;;
28587;SDS011;15787;49.662;10.162;2023-07-29T00:33:09;7.10;;;3.72;;
28587;SDS011;15787;49.662;10.162;2023-07-29T00:35:42;8.73;;;3.22;;
28587;SDS011;15787;49.662;10.162;2023-07-29T00:38:15;7.30;;;2.75;;
28587;SDS011;15787;49.662;10.162;2023-07-29T00:40:50;5.10;;;3.20;;
28587;SDS011;15787;49.662;10.162;2023-07-29T00:43:23;8.48;;;2.95;;
28587;SDS011;15787;49.662;10.162;2023-07-29T00:45:56;6.28;;;3.40;;
28587;SDS011;15787;49.662;10.162;2023-07-29T00:48:29;8.38;;;3.08;;
28587;SDS011;15787;49.662;10.162;2023-07-29T00:51:02;8.93;;;4.28;;
28587;SDS011;15787;49.662;10.162;2023-07-29T00:53:35;8.52;;;3.35;;
28587;SDS011;15787;49.662;10.162;2023-07-29T00:56:10;13.50;;;3.42;;
28587;SDS011;15787;49.662;10.162;2023-07-29T00:58:43;7.63;;;3.40;;
28587;SDS011;15787;49.662;10.162;2023-07-29T01:01:16;7.72;;;3.40;;
28587;SDS011;15787;49.662;10.162;2023-07-29T01:03:49;8.27;;;4.07;;
28587;SDS011;15787;49.662;10.162;2023-07-29T01:06:23;7.88;;;3.35;;
28587;SDS011;15787;49.662;10.162;2023-07-29T01:09:03;10.23;;;3.70;;
28587;SDS011;15787;49.662;10.162;2023-07-29T01:11:44;9.23;;;2.88;;
28587;SDS011;15787;49.662;10.162;2023-07-29T01:14:26;5.60;;;3.00;;
28587;SDS011;15787;49.662;10.162;2023-07-29T01:17:07;7.35;;;2.88;;
28587;SDS011;15787;49.662;10.162;2023-07-29T01:19:43;10.60;;;3.08;;
28587;SDS011;15787;49.662;10.162;2023-07-29T01:22:25;11.65;;;2.88;;
28587;SDS011;15787;49.662;10.162;2023-07-29T01:25:00;5.63;;;2.92;;
28587;SDS011;15787;49.662;10.162;2023-07-29T01:27:34;9.73;;;3.17;;
28587;SDS011;15787;49.662;10.162;2023-07-29T01:30:07;8.65;;;2.63;;
28587;SDS011;15787;49.662;10.162;2023-07-29T01:32:43;9.57;;;2.97;;
28587;SDS011;15787;49.662;10.162;2023-07-29T01:35:24;5.93;;;2.42;;
28587;SDS011;15787;49.662;10.162;2023-07-29T01:38:03;6.50;;;2.20;;
28587;SDS011;15787;49.662;10.162;2023-07-29T01:40:40;7.95;;;2.60;;
28587;SDS011;15787;49.662;10.162;2023-07-29T01:43:14;9.15;;;2.90;;
28587;SDS011;15787;49.662;10.162;2023-07-29T01:45:48;7.75;;;2.47;;
28587;SDS011;15787;49.662;10.162;2023-07-29T01:48:22;7.03;;;2.60;;
28587;SDS011;15787;49.662;10.162;2023-07-29T01:50:55;9.50;;;2.20;;
28587;SDS011;15787;49.662;10.162;2023-07-29T01:53:28;6.75;;;2.20;;
28587;SDS011;15787;49.662;10.162;2023-07-29T01:56:02;4.55;;;2.50;;
28587;SDS011;15787;49.662;10.162;2023-07-29T01:58:36;9.63;;;3.25;;
28587;SDS011;15787;49.662;10.162;2023-07-29T02:01:09;5.30;;;2.08;;
28587;SDS011;15787;49.662;10.162;2023-07-29T02:03:42;6.85;;;2.80;;
28587;SDS011;15787;49.662;10.162;2023-07-29T02:06:15;12.45;;;2.97;;
28587;SDS011;15787;49.662;10.162;2023-07-29T02:08:48;6.30;;;3.33;;
28587;SDS011;15787;49.662;10.162;2023-07-29T02:11:22;7.53;;;2.60;;
28587;SDS011;15787;49.662;10.162;2023-07-29T02:13:59;3.90;;;2.45;;
28587;SDS011;15787;49.662;10.162;2023-07-29T02:16:32;8.38;;;2.40;;
28587;SDS011;15787;49.662;10.162;2023-07-29T02:19:07;6.82;;;2.17;;
28587;SDS011;15787;49.662;10.162;2023-07-29T02:21:40;6.00;;;2.67;;
28587;SDS011;15787;49.662;10.162;2023-07-29T02:24:12;5.50;;;2.80;;
28587;SDS011;15787;49.662;10.162;2023-07-29T02:26:47;9.25;;;2.30;;
28587;SDS011;15787;49.662;10.162;2023-07-29T02:29:20;4.30;;;2.75;;
28587;SDS011;15787;49.662;10.162;2023-07-29T02:31:53;7.47;;;3.30;;
28587;SDS011;15787;49.662;10.162;2023-07-29T02:34:25;7.90;;;3.47;;
28587;SDS011;15787;49.662;10.162;2023-07-29T02:36:59;7.30;;;2.65;;
28587;SDS011;15787;49.662;10.162;2023-07-29T02:39:31;8.85;;;3.17;;
28587;SDS011;15787;49.662;10.162;2023-07-29T02:42:06;4.10;;;2.40;;
28587;SDS011;15787;49.662;10.162;2023-07-29T02:44:39;5.50;;;2.70;;
28587;SDS011;15787;49.662;10.162;2023-07-29T02:47:12;7.50;;;2.45;;
28587;SDS011;15787;49.662;10.162;2023-07-29T02:49:46;7.93;;;2.13;;
28587;SDS011;15787;49.662;10.162;2023-07-29T02:52:19;13.45;;;2.60;;
28587;SDS011;15787;49.662;10.162;2023-07-29T02:54:52;4.00;;;2.50;;
28587;SDS011;15787;49.662;10.162;2023-07-29T02:57:27;5.13;;;2.08;;
28587;SDS011;15787;49.662;10.162;2023-07-29T03:00:00;7.82;;;2.20;;
28587;SDS011;15787;49.662;10.162;2023-07-29T03:02:33;5.28;;;2.05;;
28587;SDS011;15787;49.662;10.162;2023-07-29T03:05:07;5.22;;;2.15;;
28587;SDS011;15787;49.662;10.162;2023-07-29T03:07:41;5.10;;;2.00;;
28587;SDS011;15787;49.662;10.162;2023-07-29T03:10:14;4.45;;;2.42;;
28587;SDS011;15787;49.662;10.162;2023-07-29T03:12:48;7.57;;;2.05;;
28587;SDS011;15787;49.662;10.162;2023-07-29T03:15:22;4.35;;;2.13;;
28587;SDS011;15787;49.662;10.162;2023-07-29T03:17:56;8.98;;;2.63;;
28587;SDS011;15787;49.662;10.162;2023-07-29T03:20:29;3.75;;;2.13;;
28587;SDS011;15787;49.662;10.162;2023-07-29T03:23:02;5.88;;;2.38;;
28587;SDS011;15787;49.662;10.162;2023-07-29T03:25:35;3.53;;;2.22;;
28587;SDS011;15787;49.662;10.162;2023-07-29T03:28:09;7.63;;;2.45;;
28587;SDS011;15787;49.662;10.162;2023-07-29T03:30:42;7.20;;;2.13;;
28587;SDS011;15787;49.662;10.162;2023-07-29T03:33:15;6.45;;;2.42;;
28587;SDS011;15787;49.662;10.162;2023-07-29T03:35:48;5.00;;;2.17;;
28587;SDS011;15787;49.662;10.162;2023-07-29T03:38:21;6.38;;;2.35;;
28587;SDS011;15787;49.662;10.162;2023-07-29T03:40:56;6.85;;;2.30;;
28587;SDS011;15787;49.662;10.162;2023-07-29T03:43:31;8.25;;;2.45;;
28587;SDS011;15787;49.662;10.162;2023-07-29T03:46:05;6.90;;;2.30;;
28587;SDS011;15787;49.662;10.162;2023-07-29T03:48:43;4.95;;;2.28;;
28587;SDS011;15787;49.662;10.162;2023-07-29T03:51:16;6.30;;;1.95;;
28587;SDS011;15787;49.662;10.162;2023-07-29T03:53:49;6.38;;;1.70;;
28587;SDS011;15787;49.662;10.162;2023-07-29T03:56:22;8.38;;;2.30;;
28587;SDS011;15787;49.662;10.162;2023-07-29T03:59:02;7.68;;;2.05;;
28587;SDS011;15787;49.662;10.162;2023-07-29T04:01:36;6.05;;;2.13;;
28587;SDS011;15787;49.662;10.162;2023-07-29T04:04:10;5.53;;;2.28;;
28587;SDS011;15787;49.662;10.162;2023-07-29T04:06:43;4.00;;;1.90;;
28587;SDS011;15787;49.662;10.162;2023-07-29T04:09:16;7.07;;;1.90;;
28587;SDS011;15787;49.662;10.162;2023-07-29T04:11:50;8.02;;;2.42;;
28587;SDS011;15787;49.662;10.162;2023-07-29T04:14:24;4.90;;;1.98;;
28587;SDS011;15787;49.662;10.162;2023-07-29T04:16:57;5.75;;;2.53;;
28587;SDS011;15787;49.662;10.162;2023-07-29T04:19:30;3.17;;;1.75;;
28587;SDS011;15787;49.662;10.162;2023-07-29T04:22:04;7.38;;;2.35;;
28587;SDS011;15787;49.662;10.162;2023-07-29T04:24:37;7.18;;;2.10;;
28587;SDS011;15787;49.662;10.162;2023-07-29T04:27:10;6.97;;;2.40;;
28587;SDS011;15787;49.662;10.162;2023-07-29T04:29:44;4.57;;;2.10;;
28587;SDS011;15787;49.662;10.162;2023-07-29T04:32:17;4.75;;;2.30;;
28587;SDS011;15787;49.662;10.162;2023-07-29T04:34:50;5.00;;;1.80;;
28587;SDS011;15787;49.662;10.162;2023-07-29T04:37:23;9.75;;;1.98;;
28587;SDS011;15787;49.662;10.162;2023-07-29T04:39:56;6.57;;;1.92;;
28587;SDS011;15787;49.662;10.162;2023-07-29T04:42:29;4.18;;;1.73;;
28587;SDS011;15787;49.662;10.162;2023-07-29T04:45:04;6.70;;;2.03;;
28587;SDS011;15787;49.662;10.162;2023-07-29T04:47:38;4.97;;;1.92;;
28587;SDS011;15787;49.662;10.162;2023-07-29T04:50:11;4.78;;;2.00;;
28587;SDS011;15787;49.662;10.162;2023-07-29T04:52:44;5.85;;;2.83;;
28587;SDS011;15787;49.662;10.162;2023-07-29T04:55:17;5.63;;;3.00;;
28587;SDS011;15787;49.662;10.162;2023-07-29T04:57:50;4.95;;;1.70;;
28587;SDS011;15787;49.662;10.162;2023-07-29T05:00:24;6.72;;;2.13;;
28587;SDS011;15787;49.662;10.162;2023-07-29T05:02:57;4.47;;;2.00;;
28587;SDS011;15787;49.662;10.162;2023-07-29T05:05:31;3.05;;;1.67;;
28587;SDS011;15787;49.662;10.162;2023-07-29T05:08:05;3.92;;;1.58;;
28587;SDS011;15787;49.662;10.162;2023-07-29T05:10:37;7.13;;;2.20;;
28587;SDS011;15787;49.662;10.162;2023-07-29T05:13:10;5.07;;;1.77;;
28587;SDS011;15787;49.662;10.162;2023-07-29T05:15:46;4.90;;;1.52;;
28587;SDS011;15787;49.662;10.162;2023-07-29T05:18:20;4.47;;;1.40;;
28587;SDS011;15787;49.662;10.162;2023-07-29T05:20:53;5.80;;;1.50;;
28587;SDS011;15787;49.662;10.162;2023-07-29T05:23:26;3.58;;;1.73;;
28587;SDS011;15787;49.662;10.162;2023-07-29T05:25:59;4.95;;;1.92;;
28587;SDS011;15787;49.662;10.162;2023-07-29T05:28:32;4.43;;;1.52;;
28587;SDS011;15787;49.662;10.162;2023-07-29T05:31:07;5.38;;;1.92;;
28587;SDS011;15787;49.662;10.162;2023-07-29T05:33:40;4.22;;;1.45;;
28587;SDS011;15787;49.662;10.162;2023-07-29T05:36:13;3.17;;;1.42;;
28587;SDS011;15787;49.662;10.162;2023-07-29T05:38:46;4.72;;;2.13;;
28587;SDS011;15787;49.662;10.162;2023-07-29T05:41:19;2.03;;;1.30;;
28587;SDS011;15787;49.662;10.162;2023-07-29T05:43:52;5.43;;;1.40;;
28587;SDS011;15787;49.662;10.162;2023-07-29T05:46:27;2.70;;;1.20;;
28587;SDS011;15787;49.662;10.162;2023-07-29T05:49:00;2.50;;;1.40;;
28587;SDS011;15787;49.662;10.162;2023-07-29T05:51:33;2.40;;;1.70;;
28587;SDS011;15787;49.662;10.162;2023-07-29T05:54:06;4.72;;;1.42;;
28587;SDS011;15787;49.662;10.162;2023-07-29T05:56:39;6.75;;;1.20;;
28587;SDS011;15787;49.662;10.162;2023-07-29T05:59:13;2.40;;;1.23;;
28587;SDS011;15787;49.662;10.162;2023-07-29T06:01:47;4.65;;;1.50;;
28587;SDS011;15787;49.662;10.162;2023-07-29T06:04:20;2.72;;;1.20;;
28587;SDS011;15787;49.662;10.162;2023-07-29T06:06:53;1.90;;;1.20;;
28587;SDS011;15787;49.662;10.162;2023-07-29T06:09:27;3.65;;;1.20;;
28587;SDS011;15787;49.662;10.162;2023-07-29T06:12:00;5.30;;;1.13;;
28587;SDS011;15787;49.662;10.162;2023-07-29T06:14:33;4.95;;;1.08;;
28587;SDS011;15787;49.662;10.162;2023-07-29T06:17:11;3.63;;;1.00;;
28587;SDS011;15787;49.662;10.162;2023-07-29T06:19:48;3.58;;;1.23;;
28587;SDS011;15787;49.662;10.162;2023-07-29T06:22:25;6.28;;;1.40;;
28587;SDS011;15787;49.662;10.162;2023-07-29T06:25:06;9.20;;;1.10;;
28587;SDS011;15787;49.662;10.162;2023-07-29T06:27:44;6.88;;;1.20;;
28587;SDS011;15787;49.662;10.162;2023-07-29T06:30:19;4.90;;;1.13;;
28587;SDS011;15787;49.662;10.162;2023-07-29T06:32:56;10.30;;;1.45;;
28587;SDS011;15787;49.662;10.162;2023-07-29T06:35:30;3.92;;;1.38;;
28587;SDS011;15787;49.662;10.162;2023-07-29T06:38:07;4.10;;;1.35;;
28587;SDS011;15787;49.662;10.162;2023-07-29T06:40:46;3.60;;;1.10;;
28587;SDS011;15787;49.662;10.162;2023-07-29T06:43:19;4.55;;;1.10;;
28587;SDS011;15787;49.662;10.162;2023-07-29T06:45:57;0.70;;;0.30;;
28587;SDS011;15787;49.662;10.162;2023-07-29T06:48:32;0.00;;;0.00;;
28587;SDS011;15787;49.662;10.162;2023-07-29T06:51:05;0.52;;;0.52;;
28587;SDS011;15787;49.662;10.162;2023-07-29T06:53:39;0.00;;;0.00;;
28587;SDS011;15787;49.662;10.162;2023-07-29T06:56:12;0.00;;;0.00;;
28587;SDS011;15787;49.662;10.162;2023-07-29T06:58:44;0.00;;;0.00;;
28587;SDS011;15787;49.662;10.162;2023-07-29T07:01:17;0.00;;;0.00;;
28587;SDS011;15787;49.662;10.162;2023-07-29T07:03:53;0.00;;;0.00;;
28587;SDS011;15787;49.662;10.162;2023-07-29T07:06:26;0.57;;;0.57;;
28587;SDS011;15787;49.662;10.162;2023-07-29T07:08:59;0.00;;;0.00;;
28587;SDS011;15787;49.662;10.162;2023-07-29T07:11:32;0.00;;;0.00;;
28587;SDS011;15787;49.662;10.162;2023-07-29T07:14:05;0.00;;;0.00;;
28587;SDS011;15787;49.662;10.162;2023-07-29T07:16:37;0.80;;;0.80;;
28587;SDS011;15787;49.662;10.162;2023-07-29T07:19:12;0.00;;;0.00;;
28587;SDS011;15787;49.662;10.162;2023-07-29T07:21:45;0.00;;;0.00;;
28587;SDS011;15787;49.662;10.162;2023-07-29T07:24:18;0.00;;;0.00;;
28587;SDS011;15787;49.662;10.162;2023-07-29T07:26:51;0.00;;;0.00;;
28587;SDS011;15787;49.662;10.162;2023-07-29T07:29:24;0.20;;;0.20;;
28587;SDS011;15787;49.662;10.162;2023-07-29T07:31:57;0.10;;;0.10;;
28587;SDS011;15787;49.662;10.162;2023-07-29T07:34:32;0.00;;;0.00;;
28587;SDS011;15787;49.662;10.162;2023-07-29T07:37:06;0.00;;;0.00;;
28587;SDS011;15787;49.662;10.162;2023-07-29T07:39:38;0.00;;;0.00;;
28587;SDS011;15787;49.662;10.162;2023-07-29T07:42:11;0.00;;;0.00;;
28587;SDS011;15787;49.662;10.162;2023-07-29T07:44:44;0.00;;;0.00;;
28587;SDS011;15787;49.662;10.162;2023-07-29T07:47:17;0.00;;;0.00;;
28587;SDS011;15787;49.662;10.162;2023-07-29T07:49:51;0.00;;;0.00;;
28587;SDS011;15787;49.662;10.162;2023-07-29T07:52:24;0.00;;;0.00;;
28587;SDS011;15787;49.662;10.162;2023-07-29T07:54:57;0.00;;;0.00;;
28587;SDS011;15787;49.662;10.162;2023-07-29T07:57:30;0.00;;;0.00;;
28587;SDS011;15787;49.662;10.162;2023-07-29T08:00:04;0.00;;;0.00;;
28587;SDS011;15787;49.662;10.162;2023-07-29T08:02:46;0.00;;;0.00;;
28587;SDS011;15787;49.662;10.162;2023-07-29T08:05:20;0.00;;;0.00;;
28587;SDS011;15787;49.662;10.162;2023-07-29T08:07:53;0.00;;;0.00;;
28587;SDS011;15787;49.662;10.162;2023-07-29T08:10:26;0.00;;;0.00;;
28587;SDS011;15787;49.662;10.162;2023-07-29T08:12:59;0.00;;;0.00;;
28587;SDS011;15787;49.662;10.162;2023-07-29T08:15:32;0.00;;;0.00;;
28587;SDS011;15787;49.662;10.162;2023-07-29T08:18:05;0.00;;;0.00;;
28587;SDS011;15787;49.662;10.162;2023-07-29T08:20:39;0.00;;;0.00;;
28587;SDS011;15787;49.662;10.162;2023-07-29T08:23:12;0.00;;;0.00;;
28587;SDS011;15787;49.662;10.162;2023-07-29T08:25:49;0.00;;;0.00;;
28587;SDS011;15787;49.662;10.162;2023-07-29T08:28:24;0.00;;;0.00;;
28587;SDS011;15787;49.662;10.162;2023-07-29T08:30:57;0.00;;;0.00;;
28587;SDS011;15787;49.662;10.162;2023-07-29T08:33:30;0.00;;;0.00;;
28587;SDS011;15787;49.662;10.162;2023-07-29T08:36:06;0.00;;;0.00;;
28587;SDS011;15787;49.662;10.162;2023-07-29T08:38:39;1.10;;;0.80;;
28587;SDS011;15787;49.662;10.162;2023-07-29T08:41:13;0.00;;;0.00;;
28587;SDS011;15787;49.662;10.162;2023-07-29T08:43:50;0.00;;;0.00;;
28587;SDS011;15787;49.662;10.162;2023-07-29T08:46:26;0.00;;;0.00;;
28587;SDS011;15787;49.662;10.162;2023-07-29T08:49:01;0.00;;;0.00;;
28587;SDS011;15787;49.662;10.162;2023-07-29T08:51:36;0.00;;;0.00;;
28587;SDS011;15787;49.662;10.162;2023-07-29T08:54:10;0.00;;;0.00;;
28587;SDS011;15787;49.662;10.162;2023-07-29T08:56:43;0.00;;;0.00;;
28587;SDS011;15787;49.662;10.162;2023-07-29T08:59:17;0.00;;;0.00;;
28587;SDS011;15787;49.662;10.162;2023-07-29T09:01:51;0.17;;;0.17;;
28587;SDS011;15787;49.662;10.162;2023-07-29T09:04:27;0.00;;;0.00;;
28587;SDS011;15787;49.662;10.162;2023-07-29T09:07:02;0.00;;;0.00;;
28587;SDS011;15787;49.662;10.162;2023-07-29T09:09:38;0.00;;;0.00;;
28587;SDS011;15787;49.662;10.162;2023-07-29T09:12:11;0.00;;;0.00;;
28587;SDS011;15787;49.662;10.162;2023-07-29T09:14:44;0.00;;;0.00;;
28587;SDS011;15787;49.662;10.162;2023-07-29T09:17:18;0.28;;;0.28;;
28587;SDS011;15787;49.662;10.162;2023-07-29T09:19:52;0.00;;;0.00;;
28587;SDS011;15787;49.662;10.162;2023-07-29T09:22:28;0.00;;;0.00;;
28587;SDS011;15787;49.662;10.162;2023-07-29T09:25:02;0.00;;;0.00;;
28587;SDS011;15787;49.662;10.162;2023-07-29T09:27:35;0.00;;;0.00;;
28587;SDS011;15787;49.662;10.162;2023-07-29T09:30:15;0.00;;;0.00;;
28587;SDS011;15787;49.662;10.162;2023-07-29T09:32:52;0.13;;;0.13;;
28587;SDS011;15787;49.662;10.162;2023-07-29T09:35:27;0.17;;;0.17;;
28587;SDS011;15787;49.662;10.162;2023-07-29T09:38:02;0.00;;;0.00;;
28587;SDS011;15787;49.662;10.162;2023-07-29T09:40:35;0.00;;;0.00;;
28587;SDS011;15787;49.662;10.162;2023-07-29T09:43:09;0.00;;;0.00;;
28587;SDS011;15787;49.662;10.162;2023-07-29T09:45:42;0.00;;;0.00;;
28587;SDS011;15787;49.662;10.162;2023-07-29T09:48:15;0.00;;;0.00;;
28587;SDS011;15787;49.662;10.162;2023-07-29T09:50:54;0.00;;;0.00;;
28587;SDS011;15787;49.662;10.162;2023-07-29T09:53:28;0.00;;;0.00;;
28587;SDS011;15787;49.662;10.162;2023-07-29T09:56:01;3.45;;;1.33;;
28587;SDS011;15787;49.662;10.162;2023-07-29T09:58:35;2.47;;;1.10;;
28587;SDS011;15787;49.662;10.162;2023-07-29T10:01:09;1.83;;;1.38;;
28587;SDS011;15787;49.662;10.162;2023-07-29T10:03:43;2.22;;;1.20;;
28587;SDS011;15787;49.662;10.162;2023-07-29T10:06:17;2.60;;;1.60;;
28587;SDS011;15787;49.662;10.162;2023-07-29T10:08:52;5.30;;;1.38;;
28587;SDS011;15787;49.662;10.162;2023-07-29T10:11:26;2.00;;;1.50;;
28587;SDS011;15787;49.662;10.162;2023-07-29T10:14:00;2.67;;;1.80;;
28587;SDS011;15787;49.662;10.162;2023-07-29T10:16:39;2.20;;;1.52;;
28587;SDS011;15787;49.662;10.162;2023-07-29T10:19:13;2.05;;;1.30;;
28587;SDS011;15787;49.662;10.162;2023-07-29T10:21:49;2.50;;;1.42;;
28587;SDS011;15787;49.662;10.162;2023-07-29T10:24:24;4.82;;;1.75;;
28587;SDS011;15787;49.662;10.162;2023-07-29T10:27:01;2.55;;;1.40;;
28587;SDS011;15787;49.662;10.162;2023-07-29T10:29:36;3.33;;;1.40;;
28587;SDS011;15787;49.662;10.162;2023-07-29T10:32:11;3.90;;;1.58;;
28587;SDS011;15787;49.662;10.162;2023-07-29T10:34:44;3.60;;;1.70;;
28587;SDS011;15787;49.662;10.162;2023-07-29T10:37:17;2.20;;;1.40;;
28587;SDS011;15787;49.662;10.162;2023-07-29T10:39:54;4.20;;;1.67;;
28587;SDS011;15787;49.662;10.162;2023-07-29T10:42:28;2.42;;;1.50;;
28587;SDS011;15787;49.662;10.162;2023-07-29T10:45:03;3.63;;;1.55;;
28587;SDS011;15787;49.662;10.162;2023-07-29T10:47:50;3.55;;;1.85;;
28587;SDS011;15787;49.662;10.162;2023-07-29T10:50:23;3.42;;;1.58;;
28587;SDS011;15787;49.662;10.162;2023-07-29T10:52:58;12.73;;;2.67;;
28587;SDS011;15787;49.662;10.162;2023-07-29T10:55:33;5.03;;;1.30;;
28587;SDS011;15787;49.662;10.162;2023-07-29T10:58:10;3.67;;;1.08;;
28587;SDS011;15787;49.662;10.162;2023-07-29T11:00:45;2.00;;;1.15;;
28587;SDS011;15787;49.662;10.162;2023-07-29T11:03:18;3.58;;;1.20;;
28587;SDS011;15787;49.662;10.162;2023-07-29T11:05:53;3.83;;;1.40;;
28587;SDS011;15787;49.662;10.162;2023-07-29T11:08:27;3.47;;;1.52;;
28587;SDS011;15787;49.662;10.162;2023-07-29T11:11:03;2.30;;;1.33;;
28587;SDS011;15787;49.662;10.162;2023-07-29T11:13:38;3.22;;;1.13;;
28587;SDS011;15787;49.662;10.162;2023-07-29T11:16:11;3.35;;;1.23;;
28587;SDS011;15787;49.662;10.162;2023-07-29T11:18:51;3.17;;;1.52;;
28587;SDS011;15787;49.662;10.162;2023-07-29T11:21:24;1.75;;;1.10;;
28587;SDS011;15787;49.662;10.162;2023-07-29T11:23:58;1.95;;;1.17;;
28587;SDS011;15787;49.662;10.162;2023-07-29T11:26:32;4.20;;;1.42;;
28587;SDS011;15787;49.662;10.162;2023-07-29T11:29:09;2.58;;;0.90;;
28587;SDS011;15787;49.662;10.162;2023-07-29T11:31:42;3.28;;;1.35;;
28587;SDS011;15787;49.662;10.162;2023-07-29T11:34:15;4.28;;;1.20;;
28587;SDS011;15787;49.662;10.162;2023-07-29T11:36:52;3.88;;;1.25;;
28587;SDS011;15787;49.662;10.162;2023-07-29T11:39:25;5.07;;;1.30;;
28587;SDS011;15787;49.662;10.162;2023-07-29T11:41:59;3.83;;;1.10;;
28587;SDS011;15787;49.662;10.162;2023-07-29T11:44:32;2.50;;;1.27;;
28587;SDS011;15787;49.662;10.162;2023-07-29T11:47:05;3.42;;;1.23;;
28587;SDS011;15787;49.662;10.162;2023-07-29T11:49:39;2.75;;;1.20;;
28587;SDS011;15787;49.662;10.162;2023-07-29T11:52:13;3.00;;;1.25;;
28587;SDS011;15787;49.662;10.162;2023-07-29T11:58:02;2.70;;;1.25;;
28587;SDS011;15787;49.662;10.162;2023-07-29T12:00:37;6.78;;;1.58;;
28587;SDS011;15787;49.662;10.162;2023-07-29T12:03:13;3.08;;;0.95;;
28587;SDS011;15787;49.662;10.162;2023-07-29T12:05:49;7.00;;;1.40;;
28587;SDS011;15787;49.662;10.162;2023-07-29T12:08:23;3.50;;;0.98;;
28587;SDS011;15787;49.662;10.162;2023-07-29T12:10:57;8.88;;;1.48;;
28587;SDS011;15787;49.662;10.162;2023-07-29T12:13:31;3.63;;;1.40;;
28587;SDS011;15787;49.662;10.162;2023-07-29T12:16:04;3.85;;;1.42;;
28587;SDS011;15787;49.662;10.162;2023-07-29T12:18:37;2.80;;;1.30;;
28587;SDS011;15787;49.662;10.162;2023-07-29T12:21:11;3.67;;;1.20;;
28587;SDS011;15787;49.662;10.162;2023-07-29T12:23:46;1.90;;;1.23;;
28587;SDS011;15787;49.662;10.162;2023-07-29T12:26:19;7.93;;;1.48;;
28587;SDS011;15787;49.662;10.162;2023-07-29T12:28:54;10.60;;;1.60;;
28587;SDS011;15787;49.662;10.162;2023-07-29T12:31:30;3.03;;;1.10;;
28587;SDS011;15787;49.662;10.162;2023-07-29T12:34:04;2.85;;;1.20;;
28587;SDS011;15787;49.662;10.162;2023-07-29T12:36:44;2.03;;;1.20;;
28587;SDS011;15787;49.662;10.162;2023-07-29T12:39:19;3.35;;;1.10;;
28587;SDS011;15787;49.662;10.162;2023-07-29T12:41:54;2.03;;;1.10;;
28587;SDS011;15787;49.662;10.162;2023-07-29T12:44:30;4.47;;;1.23;;
28587;SDS011;15787;49.662;10.162;2023-07-29T12:47:05;1.63;;;1.25;;
28587;SDS011;15787;49.662;10.162;2023-07-29T12:49:40;3.28;;;1.00;;
28587;SDS011;15787;49.662;10.162;2023-07-29T12:52:13;2.30;;;0.98;;
28587;SDS011;15787;49.662;10.162;2023-07-29T12:54:46;2.40;;;1.10;;
28587;SDS011;15787;49.662;10.162;2023-07-29T12:57:19;3.42;;;1.10;;
28587;SDS011;15787;49.662;10.162;2023-07-29T12:59:53;2.55;;;1.17;;
28587;SDS011;15787;49.662;10.162;2023-07-29T13:02:26;2.70;;;1.15;;
28587;SDS011;15787;49.662;10.162;2023-07-29T13:04:59;2.70;;;0.95;;
28587;SDS011;15787;49.662;10.162;2023-07-29T13:07:33;1.60;;;1.00;;
28587;SDS011;15787;49.662;10.162;2023-07-29T13:10:06;1.55;;;0.82;;
28587;SDS011;15787;49.662;10.162;2023-07-29T13:12:40;5.18;;;0.93;;
28587;SDS011;15787;49.662;10.162;2023-07-29T13:15:15;4.13;;;0.90;;
28587;SDS011;15787;49.662;10.162;2023-07-29T13:17:48;2.67;;;0.90;;
28587;SDS011;15787;49.662;10.162;2023-07-29T13:20:21;3.05;;;0.90;;
28587;SDS011;15787;49.662;10.162;2023-07-29T13:22:54;8.43;;;1.35;;
28587;SDS011;15787;49.662;10.162;2023-07-29T13:25:27;1.65;;;0.90;;
28587;SDS011;15787;49.662;10.162;2023-07-29T13:28:01;2.95;;;1.10;;
28587;SDS011;15787;49.662;10.162;2023-07-29T13:30:35;3.17;;;1.00;;
28587;SDS011;15787;49.662;10.162;2023-07-29T13:33:08;3.85;;;1.08;;
28587;SDS011;15787;49.662;10.162;2023-07-29T13:35:41;3.20;;;1.38;;
28587;SDS011;15787;49.662;10.162;2023-07-29T13:38:14;4.57;;;1.35;;
28587;SDS011;15787;49.662;10.162;2023-07-29T13:40:48;9.45;;;1.55;;
28587;SDS011;15787;49.662;10.162;2023-07-29T13:43:22;30.73;;;4.30;;
28587;SDS011;15787;49.662;10.162;2023-07-29T13:45:57;3.50;;;1.50;;
28587;SDS011;15787;49.662;10.162;2023-07-29T13:48:30;4.38;;;1.63;;
28587;SDS011;15787;49.662;10.162;2023-07-29T13:51:04;3.35;;;1.80;;
28587;SDS011;15787;49.662;10.162;2023-07-29T13:53:37;3.40;;;1.55;;
28587;SDS011;15787;49.662;10.162;2023-07-29T13:56:28;3.30;;;1.80;;
28587;SDS011;15787;49.662;10.162;2023-07-29T13:59:02;4.90;;;1.98;;
28587;SDS011;15787;49.662;10.162;2023-07-29T14:01:36;5.40;;;1.80;;
28587;SDS011;15787;49.662;10.162;2023-07-29T14:04:09;3.10;;;1.23;;
28587;SDS011;15787;49.662;10.162;2023-07-29T14:06:42;5.15;;;1.58;;
28587;SDS011;15787;49.662;10.162;2023-07-29T14:09:21;4.05;;;1.65;;
28587;SDS011;15787;49.662;10.162;2023-07-29T14:11:54;4.85;;;1.80;;
28587;SDS011;15787;49.662;10.162;2023-07-29T14:14:27;5.93;;;1.50;;
28587;SDS011;15787;49.662;10.162;2023-07-29T14:17:01;3.30;;;1.40;;
28587;SDS011;15787;49.662;10.162;2023-07-29T14:19:34;2.58;;;1.42;;
28587;SDS011;15787;49.662;10.162;2023-07-29T14:22:07;2.70;;;1.58;;
28587;SDS011;15787;49.662;10.162;2023-07-29T14:24:40;2.63;;;1.40;;
28587;SDS011;15787;49.662;10.162;2023-07-29T14:27:13;3.28;;;1.27;;
28587;SDS011;15787;49.662;10.162;2023-07-29T14:29:47;3.70;;;1.40;;
28587;SDS011;15787;49.662;10.162;2023-07-29T14:32:22;3.30;;;1.58;;
28587;SDS011;15787;49.662;10.162;2023-07-29T14:34:56;3.60;;;1.10;;
28587;SDS011;15787;49.662;10.162;2023-07-29T14:37:29;4.72;;;1.40;;
28587;SDS011;15787;49.662;10.162;2023-07-29T14:40:02;6.38;;;1.27;;
28587;SDS011;15787;49.662;10.162;2023-07-29T14:42:36;2.38;;;1.15;;
28587;SDS011;15787;49.662;10.162;2023-07-29T14:45:10;4.35;;;1.83;;
28587;SDS011;15787;49.662;10.162;2023-07-29T14:47:44;3.78;;;1.20;;
28587;SDS011;15787;49.662;10.162;2023-07-29T14:50:18;2.38;;;1.20;;
28587;SDS011;15787;49.662;10.162;2023-07-29T14:52:51;2.55;;;1.33;;
28587;SDS011;15787;49.662;10.162;2023-07-29T14:55:24;3.60;;;1.30;;
28587;SDS011;15787;49.662;10.162;2023-07-29T14:57:57;1.30;;;1.02;;
28587;SDS011;15787;49.662;10.162;2023-07-29T15:00:30;4.20;;;1.20;;
28587;SDS011;15787;49.662;10.162;2023-07-29T15:03:05;5.30;;;1.10;;
28587;SDS011;15787;49.662;10.162;2023-07-29T15:05:39;5.93;;;2.35;;
28587;SDS011;15787;49.662;10.162;2023-07-29T15:08:12;2.97;;;1.30;;
28587;SDS011;15787;49.662;10.162;2023-07-29T15:10:45;1.60;;;0.93;;
28587;SDS011;15787;49.662;10.162;2023-07-29T15:13:18;3.78;;;1.20;;
28587;SDS011;15787;49.662;10.162;2023-07-29T15:15:51;3.78;;;1.33;;
28587;SDS011;15787;49.662;10.162;2023-07-29T15:18:26;3.45;;;1.30;;